Terminal Aerodrome Forecast
Issued by NWS Grand Forks, ND

Home | Current Version | Previous Version | Text Only | Print | Product List | Glossary On
Versions: 1 2 3 4 5 6 7 8 9 10 11 12 13 14 15 16 17 18 19 20
000
FTUS43 KFGF 111120
TAFGFK
TAF
KGFK 111120Z 1112/1212 34024G36KT P6SM OVC008
     FM111600 35021G32KT P6SM BKN015
     FM112000 34021G32KT P6SM BKN025
     FM112100 34019KT P6SM SCT030
     FM120500 31006KT P6SM SCT070
     FM120900 25007KT P6SM BKN025=

USA.gov is the U.S. government's official web portal to all federal, state and local government web resources and services.